createdAt,value
2022-10-22T00:00:00.668Z,8.15
2022-10-22T00:03:02.315Z,8.38
2022-10-22T00:06:04.233Z,7.70
2022-10-22T00:09:06.032Z,8.30
2022-10-22T00:12:08.047Z,8.13
2022-10-22T00:15:11.745Z,8.35
2022-10-22T00:18:13.292Z,8.98
2022-10-22T00:21:15.225Z,8.48
2022-10-22T00:24:17.027Z,9.02
2022-10-22T00:27:18.589Z,8.30
2022-10-22T00:30:20.458Z,8.23
2022-10-22T00:33:22.014Z,8.00
2022-10-22T00:36:23.539Z,9.40
2022-10-22T00:39:27.203Z,9.13
2022-10-22T00:42:32.273Z,10.35
2022-10-22T00:45:33.874Z,11.95
2022-10-22T00:48:35.523Z,10.98
2022-10-22T00:51:37.433Z,18.30
2022-10-22T00:54:39.880Z,13.32
2022-10-22T00:57:42.081Z,9.85
2022-10-22T01:00:44.268Z,9.55
2022-10-22T01:03:45.847Z,8.65
2022-10-22T01:06:48.229Z,9.55
2022-10-22T01:13:24.767Z,8.38
2022-10-22T01:17:02.230Z,7.75
2022-10-22T01:20:15.768Z,7.75
2022-10-22T01:23:49.092Z,8.02
2022-10-22T01:27:19.616Z,7.25
2022-10-22T01:30:22.181Z,7.22
2022-10-22T01:33:26.184Z,7.25
2022-10-22T01:36:31.762Z,6.72
2022-10-22T01:39:34.997Z,7.35
2022-10-22T01:42:36.561Z,7.20
2022-10-22T01:45:46.718Z,7.28
2022-10-22T01:49:13.026Z,7.65
2022-10-22T01:52:51.649Z,6.78
2022-10-22T01:56:21.688Z,7.15
2022-10-22T01:59:42.107Z,7.22
2022-10-22T02:03:12.299Z,7.07
2022-10-22T02:06:21.528Z,7.40
2022-10-22T02:09:26.046Z,7.65
2022-10-22T02:12:31.116Z,7.50
2022-10-22T02:15:34.429Z,8.23
2022-10-22T02:18:40.133Z,8.52
2022-10-22T02:21:42.041Z,7.90
2022-10-22T02:24:43.854Z,8.40
2022-10-22T02:27:49.567Z,8.15
2022-10-22T02:31:01.205Z,8.02
2022-10-22T02:34:10.334Z,9.30
2022-10-22T02:37:13.511Z,8.45
2022-10-22T02:40:15.706Z,9.10
2022-10-22T02:43:18.710Z,9.55
2022-10-22T02:46:21.028Z,13.62
2022-10-22T02:49:22.731Z,11.35
2022-10-22T02:52:24.673Z,11.30
2022-10-22T02:55:26.419Z,10.00
2022-10-22T02:58:28.025Z,9.38
2022-10-22T03:01:29.792Z,8.70
2022-10-22T03:04:31.384Z,8.32
2022-10-22T03:07:34.424Z,8.95
2022-10-22T03:10:36.005Z,8.73
2022-10-22T03:13:37.902Z,8.68
2022-10-22T03:16:39.748Z,8.63
2022-10-22T03:19:42.131Z,9.00
2022-10-22T03:22:44.669Z,9.13
2022-10-22T03:25:48.259Z,8.70
2022-10-22T03:28:50.254Z,8.90
2022-10-22T03:31:52.834Z,8.00
2022-10-22T03:34:54.771Z,8.20
2022-10-22T03:37:56.380Z,8.73
2022-10-22T03:40:58.573Z,8.88
2022-10-22T03:44:02.657Z,8.20
2022-10-22T03:47:04.981Z,8.38
2022-10-22T03:50:07.416Z,9.43
2022-10-22T03:53:10.823Z,8.73
2022-10-22T03:56:13.702Z,8.98
2022-10-22T03:59:15.511Z,8.57
2022-10-22T04:02:17.320Z,9.05
2022-10-22T04:05:18.873Z,8.68
2022-10-22T04:08:20.394Z,8.35
2022-10-22T04:11:22.317Z,7.90
2022-10-22T04:14:23.974Z,8.73
2022-10-22T04:17:25.590Z,8.35
2022-10-22T04:20:27.519Z,8.43
2022-10-22T04:23:29.057Z,8.85
2022-10-22T04:26:30.862Z,8.48
2022-10-22T04:29:32.444Z,9.05
2022-10-22T04:32:34.319Z,8.48
2022-10-22T04:35:39.698Z,8.73
2022-10-22T04:38:42.689Z,9.27
2022-10-22T04:41:44.234Z,7.95
2022-10-22T04:44:46.431Z,9.20
2022-10-22T04:47:48.034Z,10.60
2022-10-22T04:50:49.911Z,10.50
2022-10-22T04:53:52.409Z,9.88
2022-10-22T04:56:54.004Z,9.80
2022-10-22T04:59:55.560Z,9.85
2022-10-22T05:02:57.495Z,9.52
2022-10-22T05:06:01.801Z,10.30
2022-10-22T05:09:14.295Z,11.23
2022-10-22T05:12:16.006Z,11.38
2022-10-22T05:15:17.939Z,9.52
2022-10-22T05:18:21.884Z,8.40
2022-10-22T05:21:24.555Z,8.23
2022-10-22T05:24:27.312Z,8.30
2022-10-22T05:27:29.197Z,10.43
2022-10-22T05:30:31.054Z,13.52
2022-10-22T05:33:33.924Z,16.10
2022-10-22T05:36:35.529Z,23.60
2022-10-22T05:39:40.082Z,24.10
2022-10-22T05:42:42.211Z,26.02
2022-10-22T05:45:44.010Z,21.25
2022-10-22T05:48:53.152Z,19.85
2022-10-22T05:51:54.791Z,12.90
2022-10-22T05:54:56.371Z,10.40
2022-10-22T05:57:58.091Z,11.00
2022-10-22T06:01:17.696Z,12.37
2022-10-22T06:04:19.306Z,11.15
2022-10-22T06:07:21.154Z,14.38
2022-10-22T06:10:23.142Z,14.32
2022-10-22T06:13:25.248Z,12.18
2022-10-22T06:16:29.944Z,18.62
2022-10-22T06:19:32.075Z,13.20
2022-10-22T06:22:34.020Z,12.27
2022-10-22T06:25:35.567Z,11.90
2022-10-22T06:28:37.512Z,11.73
2022-10-22T06:31:39.101Z,16.60
2022-10-22T06:34:40.649Z,23.73
2022-10-22T06:37:42.764Z,18.92
2022-10-22T06:40:45.292Z,13.73
2022-10-22T06:43:47.106Z,12.37
2022-10-22T06:46:53.431Z,13.05
2022-10-22T06:49:55.002Z,14.32
2022-10-22T06:52:58.029Z,12.60
2022-10-22T06:56:04.579Z,10.98
2022-10-22T06:59:06.185Z,11.48
2022-10-22T07:02:09.759Z,10.30
2022-10-22T07:05:11.643Z,10.82
2022-10-22T07:08:13.286Z,9.65
2022-10-22T07:11:19.121Z,11.23
2022-10-22T07:14:20.677Z,20.65
2022-10-22T07:17:22.613Z,16.65
2022-10-22T07:20:24.223Z,11.20
2022-10-22T07:23:26.440Z,11.10
2022-10-22T07:26:31.101Z,9.70
2022-10-22T07:29:33.266Z,10.20
2022-10-22T07:32:34.886Z,11.05
2022-10-22T07:35:38.063Z,8.90
2022-10-22T07:38:39.697Z,10.18
2022-10-22T07:41:41.287Z,10.50
2022-10-22T07:44:43.249Z,11.02
2022-10-22T07:47:46.962Z,12.85
2022-10-22T07:50:52.520Z,11.45
2022-10-22T07:53:54.284Z,10.82
2022-10-22T07:56:56.006Z,9.88
2022-10-22T07:59:58.356Z,10.70
2022-10-22T08:03:00.399Z,13.43
2022-10-22T08:06:02.825Z,10.80
2022-10-22T08:09:04.656Z,9.52
2022-10-22T08:12:07.322Z,19.77
2022-10-22T08:15:09.791Z,34.15
2022-10-22T08:18:11.654Z,12.93
2022-10-22T08:21:13.451Z,11.12
2022-10-22T08:24:15.599Z,18.25
2022-10-22T08:27:17.240Z,9.52
2022-10-22T08:30:19.568Z,10.20
2022-10-22T08:33:21.778Z,9.52
2022-10-22T08:36:23.685Z,10.70
2022-10-22T08:39:25.582Z,10.25
2022-10-22T08:42:44.337Z,9.80
2022-10-22T08:45:56.452Z,9.25
2022-10-22T08:49:01.830Z,9.68
2022-10-22T08:52:03.979Z,11.40
2022-10-22T08:55:09.295Z,10.07
2022-10-22T08:58:42.245Z,9.35
2022-10-22T09:01:47.141Z,9.43
2022-10-22T09:05:02.512Z,10.80
2022-10-22T09:08:05.773Z,10.25
2022-10-22T09:11:27.106Z,9.88
2022-10-22T09:14:30.217Z,10.57
2022-10-22T09:17:41.879Z,11.20
2022-10-22T09:20:51.115Z,9.48
2022-10-22T09:23:58.525Z,9.98
2022-10-22T09:27:01.195Z,9.15
2022-10-22T09:30:02.874Z,9.23
2022-10-22T09:33:07.374Z,8.38
2022-10-22T09:36:15.609Z,9.23
2022-10-22T09:39:27.088Z,9.07
2022-10-22T09:42:28.723Z,9.77
2022-10-22T09:45:32.248Z,9.18
2022-10-22T09:48:39.373Z,9.15
2022-10-22T09:54:53.142Z,9.15
2022-10-22T09:57:58.050Z,8.98
2022-10-22T10:01:01.178Z,9.00
2022-10-22T10:04:10.566Z,9.13
2022-10-22T10:07:18.578Z,9.07
2022-10-22T10:10:28.023Z,9.18
2022-10-22T10:13:51.666Z,9.07
2022-10-22T10:17:02.919Z,10.07
2022-10-22T10:20:45.667Z,10.00
2022-10-22T10:24:17.871Z,10.25
2022-10-22T10:27:31.419Z,9.90
2022-10-22T10:30:36.599Z,11.23
2022-10-22T10:34:10.261Z,10.55
2022-10-22T10:37:32.580Z,10.73
2022-10-22T10:41:12.225Z,10.48
2022-10-22T10:44:42.127Z,11.00
2022-10-22T10:47:55.218Z,10.90
2022-10-22T10:51:33.637Z,10.85
2022-10-22T10:55:04.234Z,11.23
2022-10-22T10:58:15.283Z,11.38
2022-10-22T11:01:59.925Z,13.77
2022-10-22T11:05:30.411Z,14.98
2022-10-22T11:08:36.803Z,16.70
2022-10-22T11:11:48.126Z,18.60
2022-10-22T11:15:23.914Z,18.77
2022-10-22T11:18:48.046Z,14.48
2022-10-22T11:22:26.511Z,15.60
2022-10-22T11:25:34.883Z,14.40
2022-10-22T11:28:48.100Z,13.73
2022-10-22T11:31:52.853Z,17.50
2022-10-22T11:35:04.944Z,15.25
2022-10-22T11:38:10.154Z,16.50
2022-10-22T11:41:23.410Z,15.32
2022-10-22T11:44:26.028Z,32.72
2022-10-22T11:47:50.215Z,38.13
2022-10-22T11:51:01.891Z,24.23
2022-10-22T11:54:31.555Z,17.05
2022-10-22T11:57:38.386Z,10.73
2022-10-22T12:00:48.113Z,8.75
2022-10-22T12:04:14.176Z,14.10
2022-10-22T12:07:51.769Z,12.60
2022-10-22T12:10:59.530Z,16.55
2022-10-22T12:14:24.659Z,17.42
2022-10-22T12:17:29.029Z,16.90
2022-10-22T12:20:31.477Z,18.40
2022-10-22T12:23:35.718Z,24.15
2022-10-22T12:26:37.562Z,38.83
2022-10-22T12:29:39.085Z,29.40
2022-10-22T12:32:41.462Z,110.88
2022-10-22T12:35:45.408Z,77.78
2022-10-22T12:38:47.623Z,24.98
2022-10-22T12:41:49.488Z,15.85
2022-10-22T12:44:56.569Z,88.93
2022-10-22T12:51:04.731Z,47.35
2022-10-22T12:54:26.826Z,16.55
2022-10-22T12:57:28.411Z,61.92
2022-10-22T13:00:35.101Z,67.97
2022-10-22T13:03:41.947Z,51.65
2022-10-22T13:06:50.784Z,26.58
2022-10-22T13:09:59.874Z,24.23
2022-10-22T13:13:08.191Z,17.27
2022-10-22T13:16:28.107Z,26.10
2022-10-22T13:19:38.416Z,17.62
2022-10-22T13:22:52.210Z,15.48
2022-10-22T13:26:03.433Z,19.90
2022-10-22T13:29:11.915Z,22.87
2022-10-22T13:32:29.934Z,24.70
2022-10-22T13:35:34.683Z,28.15
2022-10-22T13:38:36.222Z,26.42
2022-10-22T13:44:41.786Z,23.30
2022-10-22T13:47:48.745Z,37.67
2022-10-22T13:50:51.319Z,32.30
2022-10-22T13:53:53.624Z,31.55
2022-10-22T13:56:55.405Z,29.70
2022-10-22T13:59:57.287Z,26.62
2022-10-22T14:03:00.056Z,26.83
2022-10-22T14:06:01.844Z,21.33
2022-10-22T14:09:11.403Z,17.75
2022-10-22T14:12:16.721Z,18.08
2022-10-22T14:15:21.006Z,16.70
2022-10-22T14:18:29.034Z,24.17
2022-10-22T14:21:36.162Z,28.23
2022-10-22T14:24:37.891Z,28.05
2022-10-22T14:27:39.742Z,35.75
2022-10-22T14:30:41.774Z,34.53
2022-10-22T14:33:43.681Z,27.40
2022-10-22T14:36:45.673Z,20.80
2022-10-22T14:39:51.982Z,18.90
2022-10-22T14:42:54.017Z,14.87
2022-10-22T14:45:56.372Z,16.60
2022-10-22T14:48:58.007Z,15.43
2022-10-22T14:51:59.992Z,14.30
2022-10-22T14:55:01.735Z,14.48
2022-10-22T14:58:03.888Z,16.85
2022-10-22T15:01:06.023Z,18.87
2022-10-22T15:04:08.690Z,19.00
2022-10-22T15:07:10.448Z,18.42
2022-10-22T15:10:12.218Z,18.50
2022-10-22T15:13:14.551Z,24.48
2022-10-22T15:16:17.079Z,25.60
2022-10-22T15:19:18.909Z,24.10
2022-10-22T15:22:20.570Z,24.15
2022-10-22T15:25:23.652Z,26.70
2022-10-22T15:28:25.841Z,20.73
2022-10-22T15:31:48.574Z,19.52
2022-10-22T15:34:53.183Z,20.80
2022-10-22T15:37:54.857Z,15.85
2022-10-22T15:41:07.271Z,14.27
2022-10-22T15:44:17.795Z,15.30
2022-10-22T15:47:19.854Z,14.15
2022-10-22T15:50:21.543Z,14.05
2022-10-22T15:53:23.313Z,15.90
2022-10-22T15:56:28.100Z,17.42
2022-10-22T15:59:30.626Z,16.80
2022-10-22T16:02:32.561Z,15.18
2022-10-22T16:05:34.519Z,15.63
2022-10-22T16:08:36.993Z,15.85
2022-10-22T16:11:39.928Z,15.60
2022-10-22T16:14:42.049Z,16.85
2022-10-22T16:17:44.211Z,17.15
2022-10-22T16:20:46.602Z,18.83
2022-10-22T16:23:48.856Z,19.85
2022-10-22T16:26:53.195Z,18.95
2022-10-22T16:29:55.589Z,16.92
2022-10-22T16:32:58.786Z,16.08
2022-10-22T16:36:02.172Z,17.70
2022-10-22T16:39:05.288Z,20.48
2022-10-22T16:42:08.016Z,20.17
2022-10-22T16:45:10.524Z,17.85
2022-10-22T16:48:13.678Z,17.45
2022-10-22T16:51:17.950Z,17.27
2022-10-22T16:54:21.927Z,17.70
2022-10-22T16:57:25.518Z,16.65
2022-10-22T17:00:27.616Z,17.48
2022-10-22T17:03:29.752Z,14.55
2022-10-22T17:06:33.136Z,14.15
2022-10-22T17:09:38.459Z,13.38
2022-10-22T17:12:40.823Z,14.35
2022-10-22T17:15:44.381Z,14.35
2022-10-22T17:18:47.895Z,13.77
2022-10-22T17:22:06.180Z,16.45
2022-10-22T17:25:13.227Z,19.58
2022-10-22T17:28:16.174Z,19.67
2022-10-22T17:31:21.532Z,18.55
2022-10-22T17:34:23.930Z,19.23
2022-10-22T17:37:26.122Z,17.70
2022-10-22T17:40:28.483Z,19.35
2022-10-22T17:43:33.004Z,18.12
2022-10-22T17:46:37.842Z,18.80
2022-10-22T17:49:41.151Z,19.45
2022-10-22T17:52:43.508Z,20.85
2022-10-22T17:55:45.759Z,19.60
2022-10-22T17:58:47.993Z,19.90
2022-10-22T18:01:50.476Z,18.58
2022-10-22T18:04:56.200Z,16.58
2022-10-22T18:08:00.795Z,17.27
2022-10-22T18:11:08.232Z,16.87
2022-10-22T18:14:10.557Z,17.73
2022-10-22T18:17:18.654Z,17.40
2022-10-22T18:20:21.204Z,17.87
2022-10-22T18:23:23.610Z,20.65
2022-10-22T18:26:27.031Z,19.87
2022-10-22T18:29:29.639Z,21.12
2022-10-22T18:32:34.234Z,21.67
2022-10-22T18:35:37.638Z,21.10
2022-10-22T18:38:40.029Z,21.35
2022-10-22T18:41:43.617Z,20.52
2022-10-22T18:44:45.865Z,20.60
2022-10-22T18:47:48.897Z,21.52
2022-10-22T18:51:00.538Z,20.95
2022-10-22T18:54:05.764Z,20.12
2022-10-22T18:57:18.870Z,20.42
2022-10-22T19:00:22.132Z,20.60
2022-10-22T19:03:24.323Z,21.55
2022-10-22T19:06:34.457Z,21.40
2022-10-22T19:09:40.263Z,21.95
2022-10-22T19:12:42.282Z,21.00
2022-10-22T19:15:44.484Z,21.98
2022-10-22T19:18:46.682Z,21.12
2022-10-22T19:21:49.385Z,21.35
2022-10-22T19:24:51.828Z,20.83
2022-10-22T19:27:54.650Z,21.70
2022-10-22T19:30:57.763Z,21.35
2022-10-22T19:34:02.232Z,21.33
2022-10-22T19:37:04.371Z,20.48
2022-10-22T19:40:08.958Z,21.15
2022-10-22T19:43:12.315Z,21.02
2022-10-22T19:46:16.033Z,21.00
2022-10-22T19:49:22.157Z,21.00
2022-10-22T19:52:25.427Z,19.92
2022-10-22T19:55:28.272Z,19.52
2022-10-22T19:58:32.432Z,19.83
2022-10-22T20:01:35.605Z,19.35
2022-10-22T20:04:37.676Z,20.05
2022-10-22T20:07:40.892Z,19.67
2022-10-22T20:10:43.304Z,19.85
2022-10-22T20:13:49.566Z,20.23
2022-10-22T20:16:54.449Z,19.92
2022-10-22T20:19:56.807Z,19.85
2022-10-22T20:22:58.912Z,19.92
2022-10-22T20:26:01.099Z,21.73
2022-10-22T20:29:03.320Z,21.17
2022-10-22T20:32:08.091Z,21.55
2022-10-22T20:35:11.494Z,21.05
2022-10-22T20:38:15.904Z,21.87
2022-10-22T20:41:23.841Z,22.05
2022-10-22T20:44:26.053Z,21.95
2022-10-22T20:47:39.166Z,22.13
2022-10-22T20:50:49.949Z,20.88
2022-10-22T20:53:52.001Z,21.77
2022-10-22T20:56:55.353Z,22.65
2022-10-22T20:59:57.832Z,22.17
2022-10-22T21:02:59.507Z,22.45
2022-10-22T21:06:01.499Z,21.75
2022-10-22T21:09:03.898Z,21.12
2022-10-22T21:12:06.501Z,20.33
2022-10-22T21:15:11.767Z,21.45
2022-10-22T21:18:14.879Z,21.30
2022-10-22T21:21:20.275Z,21.23
2022-10-22T21:24:24.786Z,20.62
2022-10-22T21:27:26.762Z,20.12
2022-10-22T21:30:28.319Z,20.85
2022-10-22T21:33:30.500Z,21.70
2022-10-22T21:36:32.318Z,21.67
2022-10-22T21:39:39.656Z,20.67
2022-10-22T21:42:43.648Z,21.23
2022-10-22T21:45:45.561Z,19.98
2022-10-22T21:48:47.997Z,22.35
2022-10-22T21:51:49.578Z,21.80
2022-10-22T21:54:51.336Z,21.70
2022-10-22T21:57:52.932Z,21.23
2022-10-22T22:00:57.140Z,22.08
2022-10-22T22:03:59.552Z,20.17
2022-10-22T22:07:01.137Z,20.40
2022-10-22T22:10:03.366Z,21.37
2022-10-22T22:13:05.344Z,20.83
2022-10-22T22:16:13.656Z,20.42
2022-10-22T22:19:15.279Z,20.02
2022-10-22T22:22:16.835Z,20.12
2022-10-22T22:25:18.727Z,19.87
2022-10-22T22:28:20.288Z,21.08
2022-10-22T22:31:27.386Z,20.23
2022-10-22T22:34:28.939Z,19.95
2022-10-22T22:37:30.953Z,20.67
2022-10-22T22:40:33.831Z,19.33
2022-10-22T22:43:37.696Z,20.12
2022-10-22T22:46:39.852Z,20.12
2022-10-22T22:49:41.420Z,19.98
2022-10-22T22:52:43.269Z,19.83
2022-10-22T22:55:45.201Z,20.02
2022-10-22T22:58:47.286Z,20.58
2022-10-22T23:01:50.248Z,18.33
2022-10-22T23:04:52.132Z,18.95
2022-10-22T23:07:53.684Z,19.08
2022-10-22T23:10:55.455Z,18.45
2022-10-22T23:13:59.685Z,18.98
2022-10-22T23:17:01.272Z,18.33
2022-10-22T23:20:03.584Z,18.77
2022-10-22T23:23:06.249Z,19.23
2022-10-22T23:26:11.098Z,19.12
2022-10-22T23:29:15.644Z,18.80
2022-10-22T23:32:17.277Z,18.20
2022-10-22T23:35:19.218Z,18.45
2022-10-22T23:38:20.852Z,19.62
2022-10-22T23:41:22.981Z,19.05
2022-10-22T23:44:25.240Z,18.80
2022-10-22T23:47:27.130Z,19.17
2022-10-22T23:50:28.801Z,17.98
2022-10-22T23:53:30.617Z,18.27
2022-10-22T23:56:33.591Z,18.87
2022-10-22T23:59:35.135Z,18.50
